sensor_id;sensor_type;location;lat;lon;timestamp;P1;durP1;ratioP1;P2;durP2;ratioP2
61254;SDS011;47128;47.530;8.584;2022-07-24T00:00:23;19.65;;;13.35;;
61254;SDS011;47128;47.530;8.584;2022-07-24T00:02:49;18.98;;;13.43;;
61254;SDS011;47128;47.530;8.584;2022-07-24T00:05:15;19.65;;;15.95;;
61254;SDS011;47128;47.530;8.584;2022-07-24T00:07:41;20.17;;;15.57;;
61254;SDS011;47128;47.530;8.584;2022-07-24T00:10:06;16.73;;;12.70;;
61254;SDS011;47128;47.530;8.584;2022-07-24T00:12:33;17.63;;;13.30;;
61254;SDS011;47128;47.530;8.584;2022-07-24T00:14:59;19.45;;;12.90;;
61254;SDS011;47128;47.530;8.584;2022-07-24T00:17:25;19.67;;;12.60;;
61254;SDS011;47128;47.530;8.584;2022-07-24T00:19:51;20.02;;;13.00;;
61254;SDS011;47128;47.530;8.584;2022-07-24T00:22:17;15.98;;;13.38;;
61254;SDS011;47128;47.530;8.584;2022-07-24T00:24:42;19.77;;;13.60;;
61254;SDS011;47128;47.530;8.584;2022-07-24T00:27:08;14.32;;;12.82;;
61254;SDS011;47128;47.530;8.584;2022-07-24T00:29:33;20.00;;;12.50;;
61254;SDS011;47128;47.530;8.584;2022-07-24T00:31:59;14.05;;;11.63;;
61254;SDS011;47128;47.530;8.584;2022-07-24T00:34:25;15.52;;;12.13;;
61254;SDS011;47128;47.530;8.584;2022-07-24T00:36:50;15.55;;;12.38;;
61254;SDS011;47128;47.530;8.584;2022-07-24T00:39:16;14.73;;;12.15;;
61254;SDS011;47128;47.530;8.584;2022-07-24T00:41:41;18.25;;;13.35;;
61254;SDS011;47128;47.530;8.584;2022-07-24T00:46:35;19.80;;;13.63;;
61254;SDS011;47128;47.530;8.584;2022-07-24T00:49:03;18.83;;;13.45;;
61254;SDS011;47128;47.530;8.584;2022-07-24T00:51:31;19.27;;;12.90;;
61254;SDS011;47128;47.530;8.584;2022-07-24T00:53:57;17.65;;;13.57;;
61254;SDS011;47128;47.530;8.584;2022-07-24T00:56:23;18.50;;;14.07;;
61254;SDS011;47128;47.530;8.584;2022-07-24T00:58:49;19.73;;;13.88;;
61254;SDS011;47128;47.530;8.584;2022-07-24T01:01:16;17.58;;;13.68;;
61254;SDS011;47128;47.530;8.584;2022-07-24T01:03:41;17.42;;;13.27;;
61254;SDS011;47128;47.530;8.584;2022-07-24T01:06:07;17.67;;;13.02;;
61254;SDS011;47128;47.530;8.584;2022-07-24T01:08:34;17.10;;;12.48;;
61254;SDS011;47128;47.530;8.584;2022-07-24T01:11:00;15.77;;;12.68;;
61254;SDS011;47128;47.530;8.584;2022-07-24T01:13:27;19.20;;;13.40;;
61254;SDS011;47128;47.530;8.584;2022-07-24T01:15:54;18.00;;;13.18;;
61254;SDS011;47128;47.530;8.584;2022-07-24T01:18:20;18.83;;;13.20;;
61254;SDS011;47128;47.530;8.584;2022-07-24T01:20:46;16.05;;;11.95;;
61254;SDS011;47128;47.530;8.584;2022-07-24T01:23:13;15.88;;;12.95;;
61254;SDS011;47128;47.530;8.584;2022-07-24T01:25:39;18.67;;;12.90;;
61254;SDS011;47128;47.530;8.584;2022-07-24T01:28:05;17.17;;;13.02;;
61254;SDS011;47128;47.530;8.584;2022-07-24T01:30:31;20.70;;;14.25;;
61254;SDS011;47128;47.530;8.584;2022-07-24T01:32:57;18.92;;;13.68;;
61254;SDS011;47128;47.530;8.584;2022-07-24T01:35:23;17.08;;;13.57;;
61254;SDS011;47128;47.530;8.584;2022-07-24T01:37:49;17.15;;;13.38;;
61254;SDS011;47128;47.530;8.584;2022-07-24T01:40:15;18.65;;;14.70;;
61254;SDS011;47128;47.530;8.584;2022-07-24T01:42:40;22.23;;;15.70;;
61254;SDS011;47128;47.530;8.584;2022-07-24T01:45:06;21.83;;;13.82;;
61254;SDS011;47128;47.530;8.584;2022-07-24T01:47:32;18.92;;;14.25;;
61254;SDS011;47128;47.530;8.584;2022-07-24T01:49:58;18.83;;;12.80;;
61254;SDS011;47128;47.530;8.584;2022-07-24T01:52:23;19.83;;;14.20;;
61254;SDS011;47128;47.530;8.584;2022-07-24T01:54:50;20.63;;;13.73;;
61254;SDS011;47128;47.530;8.584;2022-07-24T01:57:16;18.40;;;13.75;;
61254;SDS011;47128;47.530;8.584;2022-07-24T01:59:42;16.13;;;12.98;;
61254;SDS011;47128;47.530;8.584;2022-07-24T02:02:08;15.27;;;13.10;;
61254;SDS011;47128;47.530;8.584;2022-07-24T02:04:33;15.60;;;12.93;;
61254;SDS011;47128;47.530;8.584;2022-07-24T02:06:59;14.55;;;12.38;;
61254;SDS011;47128;47.530;8.584;2022-07-24T02:09:25;14.98;;;12.68;;
61254;SDS011;47128;47.530;8.584;2022-07-24T02:11:51;16.80;;;12.48;;
61254;SDS011;47128;47.530;8.584;2022-07-24T02:14:17;20.40;;;12.95;;
61254;SDS011;47128;47.530;8.584;2022-07-24T02:16:43;18.15;;;13.57;;
61254;SDS011;47128;47.530;8.584;2022-07-24T02:19:09;16.80;;;13.05;;
61254;SDS011;47128;47.530;8.584;2022-07-24T02:21:34;19.85;;;13.82;;
61254;SDS011;47128;47.530;8.584;2022-07-24T02:24:00;24.52;;;14.23;;
61254;SDS011;47128;47.530;8.584;2022-07-24T02:26:26;20.52;;;14.30;;
61254;SDS011;47128;47.530;8.584;2022-07-24T02:28:52;21.30;;;13.80;;
61254;SDS011;47128;47.530;8.584;2022-07-24T02:31:17;22.65;;;15.38;;
61254;SDS011;47128;47.530;8.584;2022-07-24T02:33:43;17.90;;;14.32;;
61254;SDS011;47128;47.530;8.584;2022-07-24T02:36:09;20.25;;;14.73;;
61254;SDS011;47128;47.530;8.584;2022-07-24T02:38:34;19.23;;;14.68;;
61254;SDS011;47128;47.530;8.584;2022-07-24T02:41:00;20.00;;;14.82;;
61254;SDS011;47128;47.530;8.584;2022-07-24T02:43:26;18.23;;;13.02;;
61254;SDS011;47128;47.530;8.584;2022-07-24T02:45:51;15.55;;;12.40;;
61254;SDS011;47128;47.530;8.584;2022-07-24T02:48:17;19.48;;;12.98;;
61254;SDS011;47128;47.530;8.584;2022-07-24T02:50:43;20.02;;;13.00;;
61254;SDS011;47128;47.530;8.584;2022-07-24T02:53:08;15.93;;;12.75;;
61254;SDS011;47128;47.530;8.584;2022-07-24T02:55:34;19.30;;;12.90;;
61254;SDS011;47128;47.530;8.584;2022-07-24T02:58:00;16.70;;;13.88;;
61254;SDS011;47128;47.530;8.584;2022-07-24T03:00:26;16.25;;;12.93;;
61254;SDS011;47128;47.530;8.584;2022-07-24T03:02:51;17.85;;;14.07;;
61254;SDS011;47128;47.530;8.584;2022-07-24T03:05:17;20.58;;;13.88;;
61254;SDS011;47128;47.530;8.584;2022-07-24T03:07:43;18.25;;;13.55;;
61254;SDS011;47128;47.530;8.584;2022-07-24T03:10:10;19.48;;;14.35;;
61254;SDS011;47128;47.530;8.584;2022-07-24T03:12:36;16.95;;;14.07;;
61254;SDS011;47128;47.530;8.584;2022-07-24T03:15:02;17.40;;;13.43;;
61254;SDS011;47128;47.530;8.584;2022-07-24T03:17:28;19.65;;;14.00;;
61254;SDS011;47128;47.530;8.584;2022-07-24T03:19:54;19.85;;;13.45;;
61254;SDS011;47128;47.530;8.584;2022-07-24T03:22:20;16.88;;;13.82;;
61254;SDS011;47128;47.530;8.584;2022-07-24T03:24:45;17.05;;;12.75;;
61254;SDS011;47128;47.530;8.584;2022-07-24T03:27:11;14.35;;;12.35;;
61254;SDS011;47128;47.530;8.584;2022-07-24T03:29:37;17.67;;;13.02;;
61254;SDS011;47128;47.530;8.584;2022-07-24T03:32:02;14.90;;;12.60;;
61254;SDS011;47128;47.530;8.584;2022-07-24T03:34:28;21.63;;;13.95;;
61254;SDS011;47128;47.530;8.584;2022-07-24T03:36:54;20.05;;;14.40;;
61254;SDS011;47128;47.530;8.584;2022-07-24T03:39:20;18.77;;;13.63;;
61254;SDS011;47128;47.530;8.584;2022-07-24T03:41:45;22.23;;;13.50;;
61254;SDS011;47128;47.530;8.584;2022-07-24T03:44:11;15.43;;;12.82;;
61254;SDS011;47128;47.530;8.584;2022-07-24T03:46:36;18.83;;;14.38;;
61254;SDS011;47128;47.530;8.584;2022-07-24T03:49:02;15.60;;;12.90;;
61254;SDS011;47128;47.530;8.584;2022-07-24T03:51:28;18.42;;;13.30;;
61254;SDS011;47128;47.530;8.584;2022-07-24T03:53:53;18.08;;;12.77;;
61254;SDS011;47128;47.530;8.584;2022-07-24T03:56:19;16.73;;;12.60;;
61254;SDS011;47128;47.530;8.584;2022-07-24T03:58:45;18.20;;;13.85;;
61254;SDS011;47128;47.530;8.584;2022-07-24T04:01:11;19.00;;;13.70;;
61254;SDS011;47128;47.530;8.584;2022-07-24T04:03:36;20.35;;;14.25;;
61254;SDS011;47128;47.530;8.584;2022-07-24T04:06:03;16.48;;;13.35;;
61254;SDS011;47128;47.530;8.584;2022-07-24T04:08:30;17.52;;;13.27;;
61254;SDS011;47128;47.530;8.584;2022-07-24T04:10:56;16.13;;;13.38;;
61254;SDS011;47128;47.530;8.584;2022-07-24T04:13:23;18.08;;;14.02;;
61254;SDS011;47128;47.530;8.584;2022-07-24T04:15:50;19.42;;;13.70;;
61254;SDS011;47128;47.530;8.584;2022-07-24T04:18:16;17.95;;;14.23;;
61254;SDS011;47128;47.530;8.584;2022-07-24T04:20:41;16.90;;;13.40;;
61254;SDS011;47128;47.530;8.584;2022-07-24T04:23:07;21.77;;;14.40;;
61254;SDS011;47128;47.530;8.584;2022-07-24T04:25:32;18.33;;;14.15;;
61254;SDS011;47128;47.530;8.584;2022-07-24T04:27:59;18.20;;;14.88;;
61254;SDS011;47128;47.530;8.584;2022-07-24T04:30:26;18.65;;;13.48;;
61254;SDS011;47128;47.530;8.584;2022-07-24T04:32:51;21.25;;;14.38;;
61254;SDS011;47128;47.530;8.584;2022-07-24T04:35:17;18.02;;;14.02;;
61254;SDS011;47128;47.530;8.584;2022-07-24T04:37:43;16.02;;;13.40;;
61254;SDS011;47128;47.530;8.584;2022-07-24T04:40:09;19.15;;;12.80;;
61254;SDS011;47128;47.530;8.584;2022-07-24T04:42:35;15.02;;;13.13;;
61254;SDS011;47128;47.530;8.584;2022-07-24T04:45:00;17.00;;;13.05;;
61254;SDS011;47128;47.530;8.584;2022-07-24T04:47:26;17.90;;;13.02;;
61254;SDS011;47128;47.530;8.584;2022-07-24T04:49:51;17.50;;;13.38;;
61254;SDS011;47128;47.530;8.584;2022-07-24T04:52:17;19.85;;;13.40;;
61254;SDS011;47128;47.530;8.584;2022-07-24T04:54:43;16.40;;;13.68;;
61254;SDS011;47128;47.530;8.584;2022-07-24T04:57:08;17.48;;;14.18;;
61254;SDS011;47128;47.530;8.584;2022-07-24T04:59:34;16.20;;;13.35;;
61254;SDS011;47128;47.530;8.584;2022-07-24T05:02:00;17.65;;;12.95;;
61254;SDS011;47128;47.530;8.584;2022-07-24T05:04:26;15.95;;;12.60;;
61254;SDS011;47128;47.530;8.584;2022-07-24T05:06:52;17.83;;;12.63;;
61254;SDS011;47128;47.530;8.584;2022-07-24T05:09:17;19.33;;;13.50;;
61254;SDS011;47128;47.530;8.584;2022-07-24T05:11:43;17.70;;;13.82;;
61254;SDS011;47128;47.530;8.584;2022-07-24T05:14:08;16.63;;;13.75;;
61254;SDS011;47128;47.530;8.584;2022-07-24T05:16:34;17.27;;;13.95;;
61254;SDS011;47128;47.530;8.584;2022-07-24T05:19:00;20.50;;;13.88;;
61254;SDS011;47128;47.530;8.584;2022-07-24T05:21:25;17.17;;;14.07;;
61254;SDS011;47128;47.530;8.584;2022-07-24T05:23:51;16.00;;;13.32;;
61254;SDS011;47128;47.530;8.584;2022-07-24T05:26:17;16.75;;;13.80;;
61254;SDS011;47128;47.530;8.584;2022-07-24T05:28:42;24.23;;;14.77;;
61254;SDS011;47128;47.530;8.584;2022-07-24T05:31:08;20.27;;;15.00;;
61254;SDS011;47128;47.530;8.584;2022-07-24T05:33:34;16.73;;;14.02;;
61254;SDS011;47128;47.530;8.584;2022-07-24T05:35:59;19.38;;;14.07;;
61254;SDS011;47128;47.530;8.584;2022-07-24T05:38:25;17.45;;;13.85;;
61254;SDS011;47128;47.530;8.584;2022-07-24T05:40:51;16.52;;;13.00;;
61254;SDS011;47128;47.530;8.584;2022-07-24T05:43:17;15.68;;;13.07;;
61254;SDS011;47128;47.530;8.584;2022-07-24T05:45:43;18.85;;;13.07;;
61254;SDS011;47128;47.530;8.584;2022-07-24T05:48:09;16.17;;;13.38;;
61254;SDS011;47128;47.530;8.584;2022-07-24T05:50:34;15.30;;;12.52;;
61254;SDS011;47128;47.530;8.584;2022-07-24T05:53:00;14.88;;;11.95;;
61254;SDS011;47128;47.530;8.584;2022-07-24T05:55:26;15.23;;;11.18;;
61254;SDS011;47128;47.530;8.584;2022-07-24T05:57:52;13.05;;;10.63;;
61254;SDS011;47128;47.530;8.584;2022-07-24T06:00:19;12.30;;;10.65;;
61254;SDS011;47128;47.530;8.584;2022-07-24T06:02:45;13.20;;;10.45;;
61254;SDS011;47128;47.530;8.584;2022-07-24T06:05:12;14.70;;;10.98;;
61254;SDS011;47128;47.530;8.584;2022-07-24T06:07:38;13.43;;;10.85;;
61254;SDS011;47128;47.530;8.584;2022-07-24T06:10:04;14.40;;;11.20;;
61254;SDS011;47128;47.530;8.584;2022-07-24T06:12:30;15.15;;;11.35;;
61254;SDS011;47128;47.530;8.584;2022-07-24T06:14:55;13.45;;;10.10;;
61254;SDS011;47128;47.530;8.584;2022-07-24T06:17:21;11.77;;;10.57;;
61254;SDS011;47128;47.530;8.584;2022-07-24T06:19:47;11.55;;;9.38;;
61254;SDS011;47128;47.530;8.584;2022-07-24T06:22:12;12.82;;;9.90;;
61254;SDS011;47128;47.530;8.584;2022-07-24T06:24:38;10.30;;;9.27;;
61254;SDS011;47128;47.530;8.584;2022-07-24T06:27:03;10.25;;;9.25;;
61254;SDS011;47128;47.530;8.584;2022-07-24T06:29:30;10.38;;;8.80;;
61254;SDS011;47128;47.530;8.584;2022-07-24T06:31:56;10.80;;;9.57;;
61254;SDS011;47128;47.530;8.584;2022-07-24T06:34:21;11.30;;;9.43;;
61254;SDS011;47128;47.530;8.584;2022-07-24T06:36:49;10.85;;;9.82;;
61254;SDS011;47128;47.530;8.584;2022-07-24T06:39:15;9.73;;;8.80;;
61254;SDS011;47128;47.530;8.584;2022-07-24T06:41:41;9.82;;;8.88;;
61254;SDS011;47128;47.530;8.584;2022-07-24T06:44:07;10.00;;;8.95;;
61254;SDS011;47128;47.530;8.584;2022-07-24T06:46:33;10.88;;;9.55;;
61254;SDS011;47128;47.530;8.584;2022-07-24T06:48:58;10.25;;;9.20;;
61254;SDS011;47128;47.530;8.584;2022-07-24T06:51:24;9.43;;;8.52;;
61254;SDS011;47128;47.530;8.584;2022-07-24T06:53:50;10.00;;;9.00;;
61254;SDS011;47128;47.530;8.584;2022-07-24T06:56:16;9.45;;;8.38;;
61254;SDS011;47128;47.530;8.584;2022-07-24T06:58:41;9.90;;;9.00;;
61254;SDS011;47128;47.530;8.584;2022-07-24T07:01:07;10.52;;;9.43;;
61254;SDS011;47128;47.530;8.584;2022-07-24T07:03:33;9.45;;;8.13;;
61254;SDS011;47128;47.530;8.584;2022-07-24T07:05:59;10.93;;;8.60;;
61254;SDS011;47128;47.530;8.584;2022-07-24T07:08:24;9.10;;;8.13;;
61254;SDS011;47128;47.530;8.584;2022-07-24T07:10:50;10.05;;;8.40;;
61254;SDS011;47128;47.530;8.584;2022-07-24T07:13:15;9.48;;;8.57;;
61254;SDS011;47128;47.530;8.584;2022-07-24T07:15:41;11.95;;;9.15;;
61254;SDS011;47128;47.530;8.584;2022-07-24T07:18:06;11.93;;;9.25;;
61254;SDS011;47128;47.530;8.584;2022-07-24T07:20:32;11.55;;;10.02;;
61254;SDS011;47128;47.530;8.584;2022-07-24T07:22:58;10.32;;;9.20;;
61254;SDS011;47128;47.530;8.584;2022-07-24T07:25:23;11.10;;;9.85;;
61254;SDS011;47128;47.530;8.584;2022-07-24T07:27:49;10.63;;;9.63;;
61254;SDS011;47128;47.530;8.584;2022-07-24T07:30:14;13.60;;;10.38;;
61254;SDS011;47128;47.530;8.584;2022-07-24T07:32:40;12.45;;;10.13;;
61254;SDS011;47128;47.530;8.584;2022-07-24T07:35:06;13.77;;;10.93;;
61254;SDS011;47128;47.530;8.584;2022-07-24T07:37:32;11.75;;;10.50;;
61254;SDS011;47128;47.530;8.584;2022-07-24T07:39:58;12.52;;;11.18;;
61254;SDS011;47128;47.530;8.584;2022-07-24T07:42:24;13.45;;;10.48;;
61254;SDS011;47128;47.530;8.584;2022-07-24T07:44:50;11.73;;;10.32;;
61254;SDS011;47128;47.530;8.584;2022-07-24T07:47:15;13.40;;;10.80;;
61254;SDS011;47128;47.530;8.584;2022-07-24T07:49:41;14.10;;;10.95;;
61254;SDS011;47128;47.530;8.584;2022-07-24T07:52:07;15.40;;;10.90;;
61254;SDS011;47128;47.530;8.584;2022-07-24T07:54:32;12.70;;;11.00;;
61254;SDS011;47128;47.530;8.584;2022-07-24T07:56:58;14.20;;;11.10;;
61254;SDS011;47128;47.530;8.584;2022-07-24T07:59:23;12.85;;;11.07;;
61254;SDS011;47128;47.530;8.584;2022-07-24T08:01:49;11.82;;;10.63;;
61254;SDS011;47128;47.530;8.584;2022-07-24T08:04:15;11.73;;;10.50;;
61254;SDS011;47128;47.530;8.584;2022-07-24T08:06:41;14.18;;;11.40;;
61254;SDS011;47128;47.530;8.584;2022-07-24T08:09:06;14.85;;;11.57;;
61254;SDS011;47128;47.530;8.584;2022-07-24T08:11:32;13.52;;;11.57;;
61254;SDS011;47128;47.530;8.584;2022-07-24T08:13:58;14.00;;;11.35;;
61254;SDS011;47128;47.530;8.584;2022-07-24T08:16:24;13.38;;;11.23;;
61254;SDS011;47128;47.530;8.584;2022-07-24T08:18:50;12.02;;;10.82;;
61254;SDS011;47128;47.530;8.584;2022-07-24T08:21:16;13.43;;;12.02;;
61254;SDS011;47128;47.530;8.584;2022-07-24T08:23:43;12.82;;;10.48;;
61254;SDS011;47128;47.530;8.584;2022-07-24T08:26:09;12.07;;;10.77;;
61254;SDS011;47128;47.530;8.584;2022-07-24T08:28:35;13.15;;;11.38;;
61254;SDS011;47128;47.530;8.584;2022-07-24T08:31:00;12.57;;;11.27;;
61254;SDS011;47128;47.530;8.584;2022-07-24T08:33:26;12.73;;;10.23;;
61254;SDS011;47128;47.530;8.584;2022-07-24T08:35:52;11.95;;;10.73;;
61254;SDS011;47128;47.530;8.584;2022-07-24T08:38:17;13.20;;;10.45;;
61254;SDS011;47128;47.530;8.584;2022-07-24T08:40:43;11.82;;;9.90;;
61254;SDS011;47128;47.530;8.584;2022-07-24T08:43:10;15.55;;;10.27;;
61254;SDS011;47128;47.530;8.584;2022-07-24T08:45:37;11.25;;;10.15;;
61254;SDS011;47128;47.530;8.584;2022-07-24T08:48:06;12.38;;;10.88;;
61254;SDS011;47128;47.530;8.584;2022-07-24T08:50:34;11.40;;;10.13;;
61254;SDS011;47128;47.530;8.584;2022-07-24T08:53:02;11.65;;;10.45;;
61254;SDS011;47128;47.530;8.584;2022-07-24T08:55:28;11.52;;;10.38;;
61254;SDS011;47128;47.530;8.584;2022-07-24T08:57:57;11.88;;;10.63;;
61254;SDS011;47128;47.530;8.584;2022-07-24T09:00:27;13.63;;;10.10;;
61254;SDS011;47128;47.530;8.584;2022-07-24T09:02:57;11.80;;;10.27;;
61254;SDS011;47128;47.530;8.584;2022-07-24T09:05:23;12.55;;;10.63;;
61254;SDS011;47128;47.530;8.584;2022-07-24T09:07:49;11.23;;;10.02;;
61254;SDS011;47128;47.530;8.584;2022-07-24T09:10:15;12.05;;;10.25;;
61254;SDS011;47128;47.530;8.584;2022-07-24T09:12:45;11.68;;;10.48;;
61254;SDS011;47128;47.530;8.584;2022-07-24T09:17:52;13.27;;;10.70;;
61254;SDS011;47128;47.530;8.584;2022-07-24T09:20:20;12.20;;;10.43;;
61254;SDS011;47128;47.530;8.584;2022-07-24T09:22:46;12.80;;;10.40;;
61254;SDS011;47128;47.530;8.584;2022-07-24T09:25:20;12.35;;;9.98;;
61254;SDS011;47128;47.530;8.584;2022-07-24T09:27:49;12.27;;;10.98;;
61254;SDS011;47128;47.530;8.584;2022-07-24T09:30:29;11.55;;;10.27;;
61254;SDS011;47128;47.530;8.584;2022-07-24T09:35:29;13.13;;;10.13;;
61254;SDS011;47128;47.530;8.584;2022-07-24T09:38:02;11.57;;;10.43;;
61254;SDS011;47128;47.530;8.584;2022-07-24T09:40:40;11.27;;;10.00;;
61254;SDS011;47128;47.530;8.584;2022-07-24T09:48:33;14.27;;;10.40;;
61254;SDS011;47128;47.530;8.584;2022-07-24T09:51:02;12.35;;;10.25;;
61254;SDS011;47128;47.530;8.584;2022-07-24T09:53:30;11.20;;;10.07;;
61254;SDS011;47128;47.530;8.584;2022-07-24T09:55:57;12.13;;;10.18;;
61254;SDS011;47128;47.530;8.584;2022-07-24T09:58:29;11.95;;;10.45;;
61254;SDS011;47128;47.530;8.584;2022-07-24T10:00:57;12.55;;;10.48;;
61254;SDS011;47128;47.530;8.584;2022-07-24T10:03:26;13.48;;;10.23;;
61254;SDS011;47128;47.530;8.584;2022-07-24T10:05:58;11.95;;;10.68;;
61254;SDS011;47128;47.530;8.584;2022-07-24T10:08:29;12.20;;;9.43;;
61254;SDS011;47128;47.530;8.584;2022-07-24T10:10:56;12.07;;;9.80;;
61254;SDS011;47128;47.530;8.584;2022-07-24T10:13:22;11.50;;;9.20;;
61254;SDS011;47128;47.530;8.584;2022-07-24T10:18:46;10.68;;;9.68;;
61254;SDS011;47128;47.530;8.584;2022-07-24T10:21:21;12.73;;;9.90;;
61254;SDS011;47128;47.530;8.584;2022-07-24T10:29:15;12.15;;;9.20;;
61254;SDS011;47128;47.530;8.584;2022-07-24T10:31:49;12.15;;;10.13;;
61254;SDS011;47128;47.530;8.584;2022-07-24T10:40:12;10.52;;;9.45;;
61254;SDS011;47128;47.530;8.584;2022-07-24T10:45:36;10.55;;;9.25;;
61254;SDS011;47128;47.530;8.584;2022-07-24T10:53:25;9.43;;;8.43;;
61254;SDS011;47128;47.530;8.584;2022-07-24T10:56:20;9.13;;;8.20;;
61254;SDS011;47128;47.530;8.584;2022-07-24T11:01:47;8.82;;;7.80;;
61254;SDS011;47128;47.530;8.584;2022-07-24T11:09:25;9.57;;;8.10;;
61254;SDS011;47128;47.530;8.584;2022-07-24T11:15:03;10.45;;;8.23;;
61254;SDS011;47128;47.530;8.584;2022-07-24T11:17:35;8.32;;;7.53;;
61254;SDS011;47128;47.530;8.584;2022-07-24T11:20:03;9.75;;;8.15;;
61254;SDS011;47128;47.530;8.584;2022-07-24T11:22:37;8.43;;;7.10;;
61254;SDS011;47128;47.530;8.584;2022-07-24T11:25:09;10.73;;;8.05;;
61254;SDS011;47128;47.530;8.584;2022-07-24T11:27:57;9.25;;;7.88;;
61254;SDS011;47128;47.530;8.584;2022-07-24T11:30:40;9.00;;;8.10;;
61254;SDS011;47128;47.530;8.584;2022-07-24T11:33:10;9.55;;;7.90;;
61254;SDS011;47128;47.530;8.584;2022-07-24T11:35:36;10.68;;;8.13;;
61254;SDS011;47128;47.530;8.584;2022-07-24T11:38:04;8.75;;;7.82;;
61254;SDS011;47128;47.530;8.584;2022-07-24T11:40:31;10.27;;;7.50;;
61254;SDS011;47128;47.530;8.584;2022-07-24T11:42:58;8.80;;;7.90;;
61254;SDS011;47128;47.530;8.584;2022-07-24T11:45:29;9.05;;;8.15;;
61254;SDS011;47128;47.530;8.584;2022-07-24T11:47:55;10.30;;;8.07;;
61254;SDS011;47128;47.530;8.584;2022-07-24T11:50:21;9.63;;;8.00;;
61254;SDS011;47128;47.530;8.584;2022-07-24T11:52:48;8.55;;;7.75;;
61254;SDS011;47128;47.530;8.584;2022-07-24T11:55:15;9.93;;;8.45;;
61254;SDS011;47128;47.530;8.584;2022-07-24T11:57:54;9.07;;;7.90;;
61254;SDS011;47128;47.530;8.584;2022-07-24T12:00:22;8.98;;;8.10;;
61254;SDS011;47128;47.530;8.584;2022-07-24T12:02:50;8.90;;;8.00;;
61254;SDS011;47128;47.530;8.584;2022-07-24T12:05:31;11.25;;;7.93;;
61254;SDS011;47128;47.530;8.584;2022-07-24T12:08:00;10.95;;;8.18;;
61254;SDS011;47128;47.530;8.584;2022-07-24T12:10:27;10.20;;;8.35;;
61254;SDS011;47128;47.530;8.584;2022-07-24T12:12:54;11.32;;;8.00;;
61254;SDS011;47128;47.530;8.584;2022-07-24T12:15:21;9.65;;;8.15;;
61254;SDS011;47128;47.530;8.584;2022-07-24T12:20:24;9.15;;;8.02;;
61254;SDS011;47128;47.530;8.584;2022-07-24T12:22:55;8.20;;;7.40;;
61254;SDS011;47128;47.530;8.584;2022-07-24T12:25:22;9.65;;;8.30;;
61254;SDS011;47128;47.530;8.584;2022-07-24T12:27:49;8.88;;;7.95;;
61254;SDS011;47128;47.530;8.584;2022-07-24T12:30:21;9.25;;;8.43;;
61254;SDS011;47128;47.530;8.584;2022-07-24T12:35:20;9.38;;;8.00;;
61254;SDS011;47128;47.530;8.584;2022-07-24T12:37:46;9.68;;;8.25;;
61254;SDS011;47128;47.530;8.584;2022-07-24T12:40:26;9.02;;;7.32;;
61254;SDS011;47128;47.530;8.584;2022-07-24T12:43:02;9.27;;;7.68;;
61254;SDS011;47128;47.530;8.584;2022-07-24T12:45:29;9.53;;;8.17;;
61254;SDS011;47128;47.530;8.584;2022-07-24T12:50:30;8.32;;;7.53;;
61254;SDS011;47128;47.530;8.584;2022-07-24T12:53:01;9.15;;;8.20;;
61254;SDS011;47128;47.530;8.584;2022-07-24T12:55:32;9.60;;;8.20;;
61254;SDS011;47128;47.530;8.584;2022-07-24T12:57:59;9.48;;;7.65;;
61254;SDS011;47128;47.530;8.584;2022-07-24T13:00:26;8.50;;;7.05;;
61254;SDS011;47128;47.530;8.584;2022-07-24T13:02:52;9.98;;;7.75;;
61254;SDS011;47128;47.530;8.584;2022-07-24T13:05:40;7.85;;;7.15;;
61254;SDS011;47128;47.530;8.584;2022-07-24T13:08:07;8.75;;;7.78;;
61254;SDS011;47128;47.530;8.584;2022-07-24T13:10:33;7.70;;;6.90;;
61254;SDS011;47128;47.530;8.584;2022-07-24T13:13:00;7.57;;;6.88;;
61254;SDS011;47128;47.530;8.584;2022-07-24T13:15:26;7.10;;;6.40;;
61254;SDS011;47128;47.530;8.584;2022-07-24T13:17:52;8.77;;;7.22;;
61254;SDS011;47128;47.530;8.584;2022-07-24T13:20:18;8.05;;;6.88;;
61254;SDS011;47128;47.530;8.584;2022-07-24T13:22:43;10.15;;;7.30;;
61254;SDS011;47128;47.530;8.584;2022-07-24T13:25:09;7.75;;;6.93;;
61254;SDS011;47128;47.530;8.584;2022-07-24T13:27:35;9.57;;;7.68;;
61254;SDS011;47128;47.530;8.584;2022-07-24T13:30:00;8.00;;;7.20;;
61254;SDS011;47128;47.530;8.584;2022-07-24T13:32:26;10.07;;;7.25;;
61254;SDS011;47128;47.530;8.584;2022-07-24T13:34:52;10.80;;;7.78;;
61254;SDS011;47128;47.530;8.584;2022-07-24T13:37:18;8.05;;;6.82;;
61254;SDS011;47128;47.530;8.584;2022-07-24T13:39:44;10.77;;;7.72;;
61254;SDS011;47128;47.530;8.584;2022-07-24T13:42:10;7.10;;;6.47;;
61254;SDS011;47128;47.530;8.584;2022-07-24T13:44:35;8.02;;;7.22;;
61254;SDS011;47128;47.530;8.584;2022-07-24T13:47:01;7.85;;;6.85;;
61254;SDS011;47128;47.530;8.584;2022-07-24T13:49:27;7.13;;;6.43;;
61254;SDS011;47128;47.530;8.584;2022-07-24T13:51:52;7.30;;;6.60;;
61254;SDS011;47128;47.530;8.584;2022-07-24T13:54:18;6.63;;;5.97;;
61254;SDS011;47128;47.530;8.584;2022-07-24T13:56:44;8.50;;;6.13;;
61254;SDS011;47128;47.530;8.584;2022-07-24T13:59:10;11.73;;;7.45;;
61254;SDS011;47128;47.530;8.584;2022-07-24T14:01:36;7.22;;;6.32;;
61254;SDS011;47128;47.530;8.584;2022-07-24T14:04:05;6.60;;;5.97;;
61254;SDS011;47128;47.530;8.584;2022-07-24T14:06:34;7.10;;;6.40;;
61254;SDS011;47128;47.530;8.584;2022-07-24T14:09:01;7.30;;;6.60;;
61254;SDS011;47128;47.530;8.584;2022-07-24T14:11:30;7.35;;;6.65;;
61254;SDS011;47128;47.530;8.584;2022-07-24T14:13:56;8.15;;;6.85;;
61254;SDS011;47128;47.530;8.584;2022-07-24T14:16:22;7.38;;;6.60;;
61254;SDS011;47128;47.530;8.584;2022-07-24T14:18:47;6.22;;;5.63;;
61254;SDS011;47128;47.530;8.584;2022-07-24T14:21:13;6.60;;;6.00;;
61254;SDS011;47128;47.530;8.584;2022-07-24T14:23:39;8.43;;;5.43;;
61254;SDS011;47128;47.530;8.584;2022-07-24T14:26:05;9.85;;;6.00;;
61254;SDS011;47128;47.530;8.584;2022-07-24T14:28:31;7.43;;;6.15;;
61254;SDS011;47128;47.530;8.584;2022-07-24T14:30:57;6.72;;;6.00;;
61254;SDS011;47128;47.530;8.584;2022-07-24T14:33:23;7.72;;;6.22;;
61254;SDS011;47128;47.530;8.584;2022-07-24T14:35:48;8.45;;;6.38;;
61254;SDS011;47128;47.530;8.584;2022-07-24T14:38:14;8.07;;;6.38;;
61254;SDS011;47128;47.530;8.584;2022-07-24T14:40:40;8.10;;;6.25;;
61254;SDS011;47128;47.530;8.584;2022-07-24T14:43:06;6.57;;;5.93;;
61254;SDS011;47128;47.530;8.584;2022-07-24T14:45:31;7.22;;;6.10;;
61254;SDS011;47128;47.530;8.584;2022-07-24T14:47:57;7.57;;;6.53;;
61254;SDS011;47128;47.530;8.584;2022-07-24T14:50:22;8.13;;;6.53;;
61254;SDS011;47128;47.530;8.584;2022-07-24T14:52:48;7.47;;;6.78;;
61254;SDS011;47128;47.530;8.584;2022-07-24T14:55:14;7.88;;;6.22;;
61254;SDS011;47128;47.530;8.584;2022-07-24T14:57:40;7.75;;;6.95;;
61254;SDS011;47128;47.530;8.584;2022-07-24T15:00:05;8.57;;;6.60;;
61254;SDS011;47128;47.530;8.584;2022-07-24T15:02:32;16.38;;;7.03;;
61254;SDS011;47128;47.530;8.584;2022-07-24T15:04:58;7.40;;;6.35;;
61254;SDS011;47128;47.530;8.584;2022-07-24T15:07:24;7.85;;;6.85;;
61254;SDS011;47128;47.530;8.584;2022-07-24T15:09:50;7.15;;;6.38;;
61254;SDS011;47128;47.530;8.584;2022-07-24T15:12:15;7.28;;;6.25;;
61254;SDS011;47128;47.530;8.584;2022-07-24T15:14:41;8.05;;;6.28;;
61254;SDS011;47128;47.530;8.584;2022-07-24T15:17:06;7.63;;;6.70;;
61254;SDS011;47128;47.530;8.584;2022-07-24T15:19:32;7.30;;;6.60;;
61254;SDS011;47128;47.530;8.584;2022-07-24T15:21:58;7.55;;;6.43;;